createdAt,value
2023-02-27T00:01:08.434Z,0.00
2023-02-27T00:03:38.530Z,0.50
2023-02-27T00:11:06.313Z,0.70
2023-02-27T00:13:35.343Z,0.60
2023-02-27T00:16:05.181Z,0.50
2023-02-27T00:28:29.874Z,0.50
2023-02-27T00:36:00.919Z,0.60
2023-02-27T00:50:56.372Z,0.60
2023-02-27T00:55:56.074Z,0.60
2023-02-27T01:00:54.105Z,0.40
2023-02-27T01:03:23.673Z,0.40
2023-02-27T01:05:53.368Z,0.40
2023-02-27T01:13:24.252Z,0.40
2023-02-27T01:20:54.850Z,0.50
2023-02-27T01:23:24.839Z,0.70
2023-02-27T01:43:23.714Z,0.90
2023-02-27T01:48:41.053Z,1.00
2023-02-27T01:51:15.433Z,0.90
2023-02-27T01:53:46.965Z,0.90
2023-02-27T01:56:31.630Z,1.50
2023-02-27T01:59:05.510Z,1.10
2023-02-27T02:01:36.344Z,1.20
2023-02-27T02:04:26.236Z,1.20
2023-02-27T02:07:09.660Z,1.20
2023-02-27T02:09:43.532Z,1.50
2023-02-27T02:12:15.205Z,1.30
2023-02-27T02:17:32.896Z,1.30
2023-02-27T02:20:48.741Z,1.40
2023-02-27T02:23:47.550Z,1.40
2023-02-27T02:26:54.480Z,1.40
2023-02-27T02:30:01.083Z,1.30
2023-02-27T02:33:11.302Z,1.30
2023-02-27T02:36:13.215Z,1.50
2023-02-27T02:39:39.105Z,1.40
2023-02-27T02:42:23.672Z,1.60
2023-02-27T02:48:03.097Z,1.30
2023-02-27T02:50:45.643Z,1.60
2023-02-27T02:53:57.993Z,2.00
2023-02-27T02:56:57.786Z,1.60
2023-02-27T02:59:41.403Z,1.60
2023-02-27T03:02:17.451Z,1.60
2023-02-27T03:04:55.816Z,1.60
2023-02-27T03:07:37.471Z,1.80
2023-02-27T03:10:19.479Z,1.60
2023-02-27T03:12:57.786Z,1.70
2023-02-27T03:15:46.437Z,1.70
2023-02-27T03:18:31.351Z,1.70
2023-02-27T03:21:09.898Z,1.70
2023-02-27T03:23:47.676Z,1.80
2023-02-27T03:26:22.371Z,1.80
2023-02-27T03:29:05.696Z,1.90
2023-02-27T03:31:48.413Z,1.80
2023-02-27T03:34:41.388Z,1.90
2023-02-27T03:37:41.302Z,1.80
2023-02-27T03:40:41.461Z,1.80
2023-02-27T03:43:31.728Z,1.90
2023-02-27T03:46:17.759Z,1.90
2023-02-27T03:48:47.533Z,1.90
2023-02-27T03:51:21.640Z,1.90
2023-02-27T03:56:27.398Z,1.90
2023-02-27T04:01:25.008Z,2.00
2023-02-27T04:04:01.345Z,2.00
2023-02-27T04:06:47.971Z,2.00
2023-02-27T04:10:07.396Z,2.10
2023-02-27T04:13:14.424Z,2.30
2023-02-27T04:16:32.763Z,2.20
2023-02-27T04:19:24.600Z,2.00
2023-02-27T04:22:36.754Z,2.00
2023-02-27T04:25:55.581Z,1.70
2023-02-27T04:28:50.155Z,1.90
2023-02-27T04:31:52.544Z,2.40
2023-02-27T04:34:37.696Z,2.00
2023-02-27T04:37:18.067Z,2.10
2023-02-27T04:39:55.357Z,2.10
2023-02-27T04:42:29.828Z,2.20
2023-02-27T04:45:03.377Z,2.00
2023-02-27T04:47:38.180Z,2.00
2023-02-27T04:50:33.666Z,2.20
2023-02-27T04:53:15.973Z,2.10
2023-02-27T04:55:50.491Z,2.20
2023-02-27T04:59:01.630Z,2.20
2023-02-27T05:01:40.451Z,2.10
2023-02-27T05:04:12.392Z,2.00
2023-02-27T05:06:44.804Z,2.10
2023-02-27T05:09:32.913Z,2.10
2023-02-27T05:12:30.420Z,2.10
2023-02-27T05:15:06.948Z,2.10
2023-02-27T05:17:49.392Z,2.00
2023-02-27T05:20:21.302Z,2.20
2023-02-27T05:23:18.877Z,2.20
2023-02-27T05:26:19.036Z,2.20
2023-02-27T05:29:11.527Z,2.10
2023-02-27T05:32:07.879Z,2.10
2023-02-27T05:34:44.892Z,2.00
2023-02-27T05:37:18.990Z,2.00
2023-02-27T05:39:50.272Z,1.90
2023-02-27T05:42:29.837Z,1.90
2023-02-27T05:45:22.241Z,1.90
2023-02-27T05:48:28.239Z,1.80
2023-02-27T05:50:59.170Z,1.70
2023-02-27T05:53:32.038Z,1.60
2023-02-27T05:56:03.148Z,1.50
2023-02-27T05:58:38.066Z,1.40
2023-02-27T06:01:09.782Z,1.40
2023-02-27T06:03:40.694Z,1.40
2023-02-27T06:06:15.024Z,1.40
2023-02-27T06:16:13.890Z,1.50
2023-02-27T06:45:56.729Z,1.60
2023-02-27T06:50:57.665Z,1.90
2023-02-27T07:13:19.608Z,2.00
2023-02-27T07:38:07.580Z,2.10
2023-02-27T08:20:13.936Z,3.40
2023-02-27T08:22:43.202Z,3.40
2023-02-27T08:25:12.348Z,3.30
2023-02-27T08:27:43.502Z,3.30
2023-02-27T08:30:17.103Z,3.20
2023-02-27T08:32:46.241Z,3.10
2023-02-27T08:45:10.777Z,3.20
2023-02-27T08:50:08.025Z,3.00
2023-02-27T09:42:19.216Z,3.50
2023-02-27T09:47:32.557Z,3.50
2023-02-27T09:50:07.216Z,3.60
2023-02-27T09:52:38.532Z,3.60
2023-02-27T09:55:14.445Z,3.40
2023-02-27T10:00:45.943Z,4.00
2023-02-27T10:03:51.334Z,3.70
2023-02-27T10:06:40.344Z,3.80
2023-02-27T10:09:37.285Z,3.90
2023-02-27T10:12:41.765Z,3.70
2023-02-27T10:15:37.985Z,4.00
2023-02-27T10:21:08.502Z,4.40
2023-02-27T10:24:08.584Z,4.00
2023-02-27T10:26:46.494Z,4.30
2023-02-27T10:29:29.404Z,4.30
2023-02-27T10:32:26.817Z,4.40
2023-02-27T10:35:11.398Z,4.40
2023-02-27T10:37:50.767Z,6.60
2023-02-27T10:50:34.863Z,4.40
2023-02-27T10:53:06.667Z,4.40
2023-02-27T10:55:39.198Z,4.40
2023-02-27T11:03:06.413Z,4.40
2023-02-27T11:05:38.247Z,5.10
2023-02-27T11:08:25.599Z,4.50
2023-02-27T11:11:09.983Z,4.60
2023-02-27T11:13:44.084Z,4.70
2023-02-27T11:16:16.380Z,4.80
2023-02-27T11:18:47.310Z,4.80
2023-02-27T11:21:31.300Z,4.70
2023-02-27T11:24:07.793Z,4.80
2023-02-27T11:26:42.833Z,4.70
2023-02-27T11:29:18.441Z,4.80
2023-02-27T11:31:56.973Z,4.80
2023-02-27T11:34:36.351Z,4.80
2023-02-27T11:37:34.112Z,4.80
2023-02-27T11:40:12.868Z,4.70
2023-02-27T11:42:54.750Z,4.80
2023-02-27T11:48:33.177Z,4.70
2023-02-27T11:51:16.642Z,4.40
2023-02-27T11:54:29.971Z,4.80
2023-02-27T11:57:38.941Z,4.90
2023-02-27T12:02:57.279Z,5.10
2023-02-27T12:08:05.608Z,5.10
2023-02-27T12:11:01.769Z,5.10
2023-02-27T12:13:41.047Z,5.10
2023-02-27T12:16:26.253Z,5.10
2023-02-27T12:22:01.095Z,5.10
2023-02-27T12:24:40.471Z,4.80
2023-02-27T12:27:23.902Z,4.80
2023-02-27T12:30:07.644Z,5.30
2023-02-27T12:32:47.108Z,5.30
2023-02-27T12:35:26.035Z,5.20
2023-02-27T12:40:39.177Z,5.30
2023-02-27T12:48:23.330Z,5.30
2023-02-27T12:51:13.331Z,5.00
2023-02-27T12:53:59.519Z,5.20
2023-02-27T12:56:47.959Z,5.20
2023-02-27T12:59:54.194Z,5.20
2023-02-27T13:03:08.553Z,5.30
2023-02-27T13:05:47.673Z,4.90
2023-02-27T13:08:52.745Z,4.90
2023-02-27T13:12:05.412Z,4.90
2023-02-27T13:14:59.229Z,4.80
2023-02-27T13:17:40.945Z,4.70
2023-02-27T13:20:44.141Z,4.80
2023-02-27T13:25:51.832Z,4.70
2023-02-27T13:28:28.800Z,4.60
2023-02-27T13:31:12.798Z,4.80
2023-02-27T13:34:09.380Z,4.90
2023-02-27T13:40:01.314Z,5.10
2023-02-27T13:45:05.676Z,5.10
2023-02-27T13:47:50.156Z,5.00
2023-02-27T13:50:21.391Z,4.70
2023-02-27T13:55:36.961Z,5.20
2023-02-27T13:58:06.861Z,5.00
2023-02-27T14:00:37.890Z,5.10
2023-02-27T14:03:30.217Z,5.50
2023-02-27T14:06:05.465Z,4.90
2023-02-27T14:08:52.224Z,4.90
2023-02-27T14:11:35.944Z,4.90
2023-02-27T14:14:09.808Z,4.90
2023-02-27T14:16:41.140Z,4.90
2023-02-27T14:19:18.320Z,5.00
2023-02-27T14:22:30.534Z,5.10
2023-02-27T14:25:17.896Z,5.20
2023-02-27T14:30:35.350Z,5.10
2023-02-27T14:33:40.393Z,5.10
2023-02-27T14:36:38.046Z,5.30
2023-02-27T14:42:06.064Z,4.90
2023-02-27T14:44:47.097Z,4.90
2023-02-27T14:47:40.349Z,4.70
2023-02-27T14:50:36.740Z,4.50
2023-02-27T14:53:06.890Z,4.30
2023-02-27T14:58:21.783Z,3.80
2023-02-27T15:01:03.185Z,3.70
2023-02-27T15:03:42.246Z,3.70
2023-02-27T15:06:21.814Z,3.60
2023-02-27T15:08:54.126Z,3.60
2023-02-27T15:11:25.015Z,3.60
2023-02-27T15:14:22.634Z,3.70
2023-02-27T15:16:56.985Z,3.80
2023-02-27T15:19:31.406Z,3.90
2023-02-27T15:22:05.429Z,4.00
2023-02-27T15:24:49.782Z,4.00
2023-02-27T15:27:24.742Z,4.10
2023-02-27T15:29:59.990Z,4.20
2023-02-27T15:32:34.853Z,4.20
2023-02-27T15:35:23.330Z,4.30
2023-02-27T15:38:07.332Z,4.30
2023-02-27T15:45:45.394Z,4.40
2023-02-27T15:48:36.586Z,4.40
2023-02-27T15:51:06.561Z,4.40
2023-02-27T15:56:20.308Z,4.40
2023-02-27T15:59:01.131Z,4.40
2023-02-27T16:01:41.866Z,4.40
2023-02-27T16:04:31.332Z,4.40
2023-02-27T16:07:10.610Z,4.30
2023-02-27T16:09:39.631Z,4.40
2023-02-27T16:12:42.192Z,4.40
2023-02-27T16:15:39.009Z,4.30
2023-02-27T16:18:29.628Z,4.20
2023-02-27T16:21:22.906Z,4.10
2023-02-27T16:26:31.716Z,4.10
2023-02-27T16:29:08.708Z,4.00
2023-02-27T16:37:00.083Z,3.90
2023-02-27T16:39:29.359Z,3.80
2023-02-27T16:42:00.502Z,3.90
2023-02-27T16:46:59.955Z,3.90
2023-02-27T16:49:33.378Z,3.70
2023-02-27T16:59:36.450Z,3.70
2023-02-27T17:02:14.238Z,3.50
2023-02-27T17:07:17.995Z,3.70
2023-02-27T17:09:47.933Z,3.60
2023-02-27T17:29:42.403Z,3.80
2023-02-27T18:00:20.434Z,3.50
2023-02-27T18:12:44.505Z,3.30
2023-02-27T20:11:59.308Z,2.80
2023-02-27T20:19:26.097Z,3.10
2023-02-27T20:29:27.178Z,2.90
2023-02-27T20:31:57.363Z,2.90
2023-02-27T20:34:27.246Z,3.00
2023-02-27T20:36:57.609Z,3.00
2023-02-27T20:39:28.031Z,3.00
2023-02-27T20:56:53.908Z,2.90
2023-02-27T20:59:25.137Z,2.90
2023-02-27T21:04:42.065Z,2.80
2023-02-27T21:07:16.821Z,2.80
2023-02-27T22:34:19.334Z,2.80
2023-02-27T22:36:52.289Z,2.80
2023-02-27T22:39:21.743Z,2.80
2023-02-27T22:41:50.301Z,2.80
2023-02-27T22:46:50.690Z,2.90
2023-02-27T22:49:22.113Z,2.80
2023-02-27T22:51:52.070Z,2.90
2023-02-27T22:54:22.957Z,2.80
2023-02-27T22:56:55.844Z,2.80
2023-02-27T23:09:24.214Z,2.70
2023-02-27T23:14:22.719Z,2.70
2023-02-27T23:19:22.119Z,2.80
2023-02-27T23:24:21.096Z,2.80
2023-02-27T23:26:52.077Z,2.80
2023-02-27T23:49:27.158Z,2.60
